Time;durP1;ratioP1;P1;durP2;ratioP2;P2;SDS_P1;SDS_P2;PMS_P1;PMS_P2;Temp;Humidity;BMP_temperature;BMP_pressure;BME280_temperature;BME280_humidity;BME280_pressure;Samples;Min_cycle;Max_cycle;Signal;HPM_P1;HPM_P2
2022/07/18 00:01:39;;;;;;;8.55;4.60;;;;;;;;;;5036196;28;20446;-86
2022/07/18 00:04:24;;;;;;;7.25;5.00;;;;;;;;;;5032186;28;20036;-86
2022/07/18 00:07:12;;;;;;;8.85;4.50;;;;;;;;;;5041052;28;20094;-86
2022/07/18 00:09:57;;;;;;;9.27;4.85;;;;;;;;;;5052540;28;20036;-86
2022/07/18 00:12:41;;;;;;;9.25;4.82;;;;;;;;;;5031529;28;20505;-86
2022/07/18 00:15:26;;;;;;;7.00;4.13;;;;;;;;;;5039085;28;20512;-88
2022/07/18 00:18:11;;;;;;;8.00;4.40;;;;;;;;;;5052397;28;20123;-86
2022/07/18 00:20:55;;;;;;;9.00;4.68;;;;;;;;;;5051583;28;20039;-86
2022/07/18 00:23:40;;;;;;;6.97;4.60;;;;;;;;;;5050867;28;20059;-86
2022/07/18 00:26:24;;;;;;;7.80;4.25;;;;;;;;;;5031644;28;20076;-86
2022/07/18 00:29:09;;;;;;;8.15;3.97;;;;;;;;;;5067022;28;20122;-86
2022/07/18 00:31:53;;;;;;;7.38;4.30;;;;;;;;;;5052073;28;20439;-86
2022/07/18 00:34:39;;;;;;;8.68;5.30;;;;;;;;;;5050939;28;20078;-86
2022/07/18 00:37:23;;;;;;;7.05;4.82;;;;;;;;;;5052167;28;20079;-86
2022/07/18 00:40:08;;;;;;;9.07;4.88;;;;;;;;;;5031748;28;20418;-85
2022/07/18 00:42:53;;;;;;;7.57;4.57;;;;;;;;;;5053258;28;20389;-85
2022/07/18 00:45:38;;;;;;;10.25;4.90;;;;;;;;;;5050555;28;20079;-86
2022/07/18 00:48:22;;;;;;;11.13;4.68;;;;;;;;;;5051310;28;20492;-86
2022/07/18 00:51:07;;;;;;;8.80;4.65;;;;;;;;;;5052359;28;20542;-86
2022/07/18 00:53:51;;;;;;;9.70;4.72;;;;;;;;;;5050507;28;20044;-86
2022/07/18 00:56:36;;;;;;;10.93;4.75;;;;;;;;;;5050439;28;20082;-86
2022/07/18 00:59:20;;;;;;;10.38;5.13;;;;;;;;;;5051108;28;20115;-86
2022/07/18 01:02:05;;;;;;;8.85;4.85;;;;;;;;;;5051117;28;20484;-85
2022/07/18 01:04:49;;;;;;;12.45;5.30;;;;;;;;;;5050302;28;20120;-86
2022/07/18 01:07:34;;;;;;;8.52;5.18;;;;;;;;;;5030716;28;20064;-88
2022/07/18 01:10:19;;;;;;;6.35;4.70;;;;;;;;;;5051151;28;20480;-86
2022/07/18 01:13:03;;;;;;;7.78;4.78;;;;;;;;;;5036733;28;20509;-86
2022/07/18 01:15:48;;;;;;;8.10;4.97;;;;;;;;;;5048528;28;20098;-85
2022/07/18 01:18:33;;;;;;;11.52;4.88;;;;;;;;;;5019494;28;20048;-85
2022/07/18 01:21:18;;;;;;;8.55;5.28;;;;;;;;;;5056351;28;20041;-86
2022/07/18 01:24:03;;;;;;;8.40;4.80;;;;;;;;;;5039059;28;20035;-87
2022/07/18 01:26:48;;;;;;;10.68;5.20;;;;;;;;;;5036397;28;20405;-86
2022/07/18 01:29:33;;;;;;;8.63;4.95;;;;;;;;;;5039478;28;20446;-86
2022/07/18 01:32:18;;;;;;;9.13;4.68;;;;;;;;;;5055817;28;20397;-86
2022/07/18 01:35:06;;;;;;;9.45;5.20;;;;;;;;;;5055826;28;20082;-86
2022/07/18 01:37:55;;;;;;;10.23;4.53;;;;;;;;;;5067696;28;20090;-86
2022/07/18 01:40:40;;;;;;;6.95;4.88;;;;;;;;;;5054206;28;20086;-86
2022/07/18 01:43:25;;;;;;;7.95;5.10;;;;;;;;;;5055616;28;20047;-88
2022/07/18 01:46:11;;;;;;;7.03;4.57;;;;;;;;;;5054551;28;20061;-86
2022/07/18 01:48:56;;;;;;;8.60;5.03;;;;;;;;;;5054920;28;20048;-86
2022/07/18 01:51:40;;;;;;;8.98;5.15;;;;;;;;;;5053870;28;20036;-88
2022/07/18 01:54:26;;;;;;;8.18;5.22;;;;;;;;;;5054483;28;20044;-86
2022/07/18 01:57:11;;;;;;;8.05;4.28;;;;;;;;;;5041425;28;20036;-86
2022/07/18 01:59:56;;;;;;;10.07;5.03;;;;;;;;;;5067679;28;20500;-86
2022/07/18 02:02:41;;;;;;;7.93;4.55;;;;;;;;;;5055126;28;20044;-88
2022/07/18 02:05:25;;;;;;;8.45;5.43;;;;;;;;;;5054146;28;20394;-86
2022/07/18 02:08:09;;;;;;;7.22;4.93;;;;;;;;;;5053969;28;20064;-86
2022/07/18 02:10:54;;;;;;;8.90;5.35;;;;;;;;;;5053752;28;20075;-86
2022/07/18 02:13:38;;;;;;;10.07;4.95;;;;;;;;;;5054006;28;20457;-86
2022/07/18 02:16:23;;;;;;;9.45;5.25;;;;;;;;;;5054185;28;20080;-86
2022/07/18 02:19:08;;;;;;;8.52;4.93;;;;;;;;;;5054530;28;20507;-86
2022/07/18 02:21:52;;;;;;;9.10;4.95;;;;;;;;;;5054056;28;20071;-87
2022/07/18 02:24:37;;;;;;;8.35;5.20;;;;;;;;;;5054877;28;20107;-86
2022/07/18 02:27:21;;;;;;;9.43;5.68;;;;;;;;;;5039522;28;20126;-86
2022/07/18 02:30:07;;;;;;;8.95;6.22;;;;;;;;;;5053267;28;20500;-86
2022/07/18 02:32:52;;;;;;;8.15;4.88;;;;;;;;;;5054062;28;20048;-86
2022/07/18 02:35:36;;;;;;;10.68;5.55;;;;;;;;;;5053566;28;20064;-86
2022/07/18 02:38:21;;;;;;;7.60;5.13;;;;;;;;;;5053660;28;20512;-86
2022/07/18 02:41:06;;;;;;;10.70;5.45;;;;;;;;;;5053654;28;20032;-87
2022/07/18 02:43:50;;;;;;;8.25;5.38;;;;;;;;;;5053994;28;20044;-86
2022/07/18 02:46:35;;;;;;;10.73;5.72;;;;;;;;;;5054607;28;20082;-86
2022/07/18 02:49:31;;;;;;;7.97;5.30;;;;;;;;;;5054238;28;20543;-86
2022/07/18 02:52:16;;;;;;;9.05;5.80;;;;;;;;;;5054409;28;20078;-86
2022/07/18 02:55:01;;;;;;;8.60;5.50;;;;;;;;;;5053842;28;20055;-86
2022/07/18 02:57:46;;;;;;;10.32;6.20;;;;;;;;;;5053040;28;20098;-86
2022/07/18 03:00:31;;;;;;;7.65;5.30;;;;;;;;;;5054323;28;20138;-86
2022/07/18 03:03:15;;;;;;;12.57;6.50;;;;;;;;;;5053951;28;20055;-86
2022/07/18 03:06:00;;;;;;;9.80;5.57;;;;;;;;;;5053632;28;20106;-86
2022/07/18 03:08:45;;;;;;;11.85;5.90;;;;;;;;;;5021995;28;20103;-86
2022/07/18 03:11:29;;;;;;;10.38;5.90;;;;;;;;;;5051692;28;20036;-86
2022/07/18 03:14:14;;;;;;;11.07;5.50;;;;;;;;;;5052576;28;20167;-86
2022/07/18 03:17:00;;;;;;;12.23;6.13;;;;;;;;;;5032610;28;20144;-86
2022/07/18 03:19:44;;;;;;;9.88;5.68;;;;;;;;;;5063362;28;20794;-86
2022/07/18 03:22:29;;;;;;;10.65;5.82;;;;;;;;;;5052771;28;20040;-86
2022/07/18 03:25:13;;;;;;;10.88;5.15;;;;;;;;;;5038069;28;20124;-86
2022/07/18 03:27:58;;;;;;;9.35;5.40;;;;;;;;;;5066148;28;20040;-86
2022/07/18 03:30:43;;;;;;;12.10;5.65;;;;;;;;;;5053487;28;20040;-86
2022/07/18 03:33:27;;;;;;;9.77;5.68;;;;;;;;;;5053551;28;20044;-86
2022/07/18 03:36:12;;;;;;;13.05;5.93;;;;;;;;;;5052899;28;20615;-86
2022/07/18 03:38:56;;;;;;;11.52;5.90;;;;;;;;;;5052078;28;20102;-86
2022/07/18 03:41:41;;;;;;;10.52;6.32;;;;;;;;;;5052444;28;20561;-86
2022/07/18 03:44:25;;;;;;;9.40;5.30;;;;;;;;;;5052213;28;20401;-86
2022/07/18 03:47:10;;;;;;;7.50;5.10;;;;;;;;;;5052829;28;20083;-86
2022/07/18 03:49:54;;;;;;;10.30;5.88;;;;;;;;;;5024199;28;20040;-89
2022/07/18 03:52:39;;;;;;;9.98;5.80;;;;;;;;;;5065391;28;20040;-86
2022/07/18 03:55:23;;;;;;;8.32;5.43;;;;;;;;;;5052346;28;20040;-86
2022/07/18 03:58:08;;;;;;;8.00;5.30;;;;;;;;;;5051245;28;20107;-86
2022/07/18 04:00:53;;;;;;;9.43;5.43;;;;;;;;;;5053187;28;20124;-86
2022/07/18 04:03:38;;;;;;;8.43;5.30;;;;;;;;;;5053008;28;20090;-86
2022/07/18 04:06:22;;;;;;;8.90;5.55;;;;;;;;;;5051468;28;20103;-86
2022/07/18 04:09:07;;;;;;;10.00;5.93;;;;;;;;;;5052363;28;20043;-86
2022/07/18 04:11:51;;;;;;;9.77;5.38;;;;;;;;;;5052685;28;20036;-86
2022/07/18 04:14:36;;;;;;;7.55;4.80;;;;;;;;;;5051914;28;20393;-86
2022/07/18 04:17:21;;;;;;;14.70;5.68;;;;;;;;;;5065159;28;20047;-86
2022/07/18 04:20:05;;;;;;;8.88;5.55;;;;;;;;;;5050927;28;20039;-86
2022/07/18 04:22:57;;;;;;;8.45;4.75;;;;;;;;;;5051679;28;20114;-86
2022/07/18 04:25:42;;;;;;;9.30;5.97;;;;;;;;;;5051547;28;20040;-86
2022/07/18 04:28:27;;;;;;;8.10;5.38;;;;;;;;;;5052525;28;20116;-86
2022/07/18 04:31:11;;;;;;;10.45;5.03;;;;;;;;;;5050880;28;20098;-86
2022/07/18 04:33:56;;;;;;;12.60;5.60;;;;;;;;;;5051456;28;20048;-86
2022/07/18 04:36:40;;;;;;;11.50;5.10;;;;;;;;;;5052246;28;20039;-86
2022/07/18 04:39:25;;;;;;;8.50;4.70;;;;;;;;;;5050913;28;20040;-86
2022/07/18 04:42:09;;;;;;;10.10;5.18;;;;;;;;;;5064872;28;20043;-86
2022/07/18 04:44:54;;;;;;;11.00;5.43;;;;;;;;;;5051339;28;20028;-86
2022/07/18 04:47:38;;;;;;;9.55;4.18;;;;;;;;;;5051134;28;20090;-86
2022/07/18 04:50:24;;;;;;;8.25;4.60;;;;;;;;;;5051837;28;20140;-86
2022/07/18 04:53:08;;;;;;;6.88;4.38;;;;;;;;;;5051482;28;20489;-87
2022/07/18 04:55:53;;;;;;;8.18;4.07;;;;;;;;;;5051287;28;20112;-86
2022/07/18 04:58:38;;;;;;;10.18;4.32;;;;;;;;;;5052095;28;20148;-86
2022/07/18 05:01:22;;;;;;;8.10;4.28;;;;;;;;;;5050475;28;20485;-85
2022/07/18 05:04:06;;;;;;;10.82;4.10;;;;;;;;;;5064431;28;20044;-86
2022/07/18 05:06:51;;;;;;;7.13;3.88;;;;;;;;;;5050667;28;20098;-86
2022/07/18 05:09:36;;;;;;;8.32;3.85;;;;;;;;;;5050905;28;20044;-86
2022/07/18 05:12:23;;;;;;;10.05;3.90;;;;;;;;;;5050481;28;20078;-86
2022/07/18 05:15:12;;;;;;;7.07;3.72;;;;;;;;;;5064075;28;20090;-86
2022/07/18 05:17:57;;;;;;;6.72;4.53;;;;;;;;;;5050849;28;20191;-86
2022/07/18 05:20:41;;;;;;;10.35;4.28;;;;;;;;;;5050956;28;20044;-86
2022/07/18 05:23:29;;;;;;;8.70;4.22;;;;;;;;;;5050201;28;20044;-86
2022/07/18 05:26:14;;;;;;;8.63;3.90;;;;;;;;;;5050378;28;20040;-86
2022/07/18 05:28:58;;;;;;;6.75;3.75;;;;;;;;;;5050594;28;20485;-86
2022/07/18 05:31:43;;;;;;;8.23;3.55;;;;;;;;;;5050976;28;20044;-86
2022/07/18 05:34:27;;;;;;;10.93;3.83;;;;;;;;;;5050053;28;20645;-86
2022/07/18 05:37:11;;;;;;;7.47;3.70;;;;;;;;;;5051080;28;20095;-87
2022/07/18 05:39:56;;;;;;;7.88;3.55;;;;;;;;;;5051688;28;20036;-86
2022/07/18 05:42:41;;;;;;;9.70;3.63;;;;;;;;;;5064659;28;20090;-86
2022/07/18 05:45:26;;;;;;;7.35;3.58;;;;;;;;;;5051182;28;20056;-85
2022/07/18 05:48:10;;;;;;;9.32;3.97;;;;;;;;;;5050241;28;20555;-89
2022/07/18 05:50:54;;;;;;;8.02;3.40;;;;;;;;;;5051518;28;20456;-86
2022/07/18 05:53:39;;;;;;;6.55;2.80;;;;;;;;;;5050653;28;20056;-86
2022/07/18 05:56:23;;;;;;;9.27;3.17;;;;;;;;;;5050893;28;20036;-86
2022/07/18 05:59:08;;;;;;;9.13;3.45;;;;;;;;;;5051641;28;20048;-86
2022/07/18 06:01:52;;;;;;;7.80;3.15;;;;;;;;;;5050690;28;20110;-86
2022/07/18 06:04:37;;;;;;;12.68;4.18;;;;;;;;;;5050211;28;20040;-87
2022/07/18 06:07:22;;;;;;;10.13;4.07;;;;;;;;;;5049763;28;20460;-87
2022/07/18 06:10:06;;;;;;;8.40;3.22;;;;;;;;;;5050419;28;20044;-86
2022/07/18 06:12:54;;;;;;;7.47;2.92;;;;;;;;;;5050407;28;20028;-87
2022/07/18 06:15:39;;;;;;;4.63;2.70;;;;;;;;;;5053928;28;20087;-86
2022/07/18 06:18:23;;;;;;;7.05;2.65;;;;;;;;;;5053214;28;20047;-85
2022/07/18 06:21:08;;;;;;;4.85;2.47;;;;;;;;;;5067977;28;20047;-85
2022/07/18 06:23:53;;;;;;;5.47;2.85;;;;;;;;;;5053652;28;20036;-85
2022/07/18 06:26:37;;;;;;;8.68;3.10;;;;;;;;;;5054335;28;20481;-84
2022/07/18 06:29:22;;;;;;;8.48;3.20;;;;;;;;;;5067130;28;20060;-84
2022/07/18 06:32:06;;;;;;;6.18;2.90;;;;;;;;;;5067976;28;20039;-84
2022/07/18 06:34:51;;;;;;;4.85;2.75;;;;;;;;;;5053871;28;20051;-84
2022/07/18 06:37:36;;;;;;;6.80;2.70;;;;;;;;;;5066894;28;20047;-85
2022/07/18 06:40:21;;;;;;;4.50;2.55;;;;;;;;;;5054076;28;20495;-85
2022/07/18 06:43:06;;;;;;;5.60;2.60;;;;;;;;;;5055668;28;20401;-85
2022/07/18 06:45:52;;;;;;;5.32;2.53;;;;;;;;;;5054286;28;20036;-85
2022/07/18 06:48:36;;;;;;;5.88;3.00;;;;;;;;;;5053795;28;20914;-85
2022/07/18 06:51:21;;;;;;;8.65;3.13;;;;;;;;;;5053716;28;20044;-84
2022/07/18 06:54:05;;;;;;;8.23;2.72;;;;;;;;;;5052823;28;20499;-85
2022/07/18 06:56:50;;;;;;;6.22;2.83;;;;;;;;;;5052130;28;20051;-84
2022/07/18 06:59:34;;;;;;;5.60;2.08;;;;;;;;;;5051410;28;20110;-84
2022/07/18 07:02:19;;;;;;;6.57;2.38;;;;;;;;;;5052455;28;20543;-84
2022/07/18 07:05:03;;;;;;;5.18;2.20;;;;;;;;;;5052532;28;20040;-84
2022/07/18 07:07:48;;;;;;;5.30;2.17;;;;;;;;;;5052208;28;20064;-86
2022/07/18 07:10:33;;;;;;;8.63;2.20;;;;;;;;;;5053356;28;20484;-84
2022/07/18 07:13:18;;;;;;;4.78;2.13;;;;;;;;;;5042669;28;20095;-84
2022/07/18 07:16:02;;;;;;;5.32;2.13;;;;;;;;;;5053745;28;20036;-84
2022/07/18 07:18:47;;;;;;;4.65;2.17;;;;;;;;;;5052651;28;20175;-84
2022/07/18 07:21:31;;;;;;;4.50;1.90;;;;;;;;;;5052253;28;20063;-85
2022/07/18 07:24:16;;;;;;;5.75;2.35;;;;;;;;;;5052747;28;20037;-85
2022/07/18 07:27:01;;;;;;;5.43;2.20;;;;;;;;;;5052768;28;20047;-84
2022/07/18 07:29:45;;;;;;;6.20;2.03;;;;;;;;;;5041307;28;20072;-84
2022/07/18 07:32:33;;;;;;;5.38;2.28;;;;;;;;;;5051960;28;20083;-86
2022/07/18 07:35:19;;;;;;;4.72;1.92;;;;;;;;;;5053572;28;20508;-85
2022/07/18 07:38:04;;;;;;;6.25;2.47;;;;;;;;;;5053401;28;20126;-84
2022/07/18 07:40:48;;;;;;;7.63;2.60;;;;;;;;;;5037310;28;20091;-86
2022/07/18 07:43:36;;;;;;;5.95;2.15;;;;;;;;;;5051527;28;20071;-86
2022/07/18 07:46:20;;;;;;;5.78;1.95;;;;;;;;;;5032895;28;20398;-86
2022/07/18 07:49:05;;;;;;;4.38;2.20;;;;;;;;;;5053103;28;20071;-85
2022/07/18 07:51:49;;;;;;;8.65;2.38;;;;;;;;;;5052536;28;20051;-86
2022/07/18 07:54:34;;;;;;;6.03;2.22;;;;;;;;;;5051338;28;20550;-85
2022/07/18 07:57:19;;;;;;;7.88;2.22;;;;;;;;;;5052006;28;20044;-86
2022/07/18 08:00:08;;;;;;;4.72;1.98;;;;;;;;;;5051596;28;20040;-85
2022/07/18 08:02:58;;;;;;;6.35;2.40;;;;;;;;;;5051144;28;20032;-85
2022/07/18 08:05:48;;;;;;;6.53;1.63;;;;;;;;;;5052258;28;20071;-85
2022/07/18 08:08:33;;;;;;;5.10;1.90;;;;;;;;;;5051158;28;20068;-85
2022/07/18 08:11:17;;;;;;;8.25;2.47;;;;;;;;;;5033038;28;20044;-85
2022/07/18 08:14:02;;;;;;;5.10;2.00;;;;;;;;;;5051251;28;20039;-84
2022/07/18 08:16:47;;;;;;;7.22;2.10;;;;;;;;;;5051554;28;20040;-85
2022/07/18 08:19:31;;;;;;;5.90;2.00;;;;;;;;;;5051155;28;20040;-86
2022/07/18 08:22:17;;;;;;;5.15;1.98;;;;;;;;;;5052619;28;20040;-85
2022/07/18 08:25:02;;;;;;;6.55;2.38;;;;;;;;;;5052756;28;20047;-85
2022/07/18 08:27:47;;;;;;;6.45;2.00;;;;;;;;;;5051895;28;20063;-85
2022/07/18 08:30:32;;;;;;;7.53;2.00;;;;;;;;;;5050946;28;20039;-87
2022/07/18 08:33:17;;;;;;;7.40;1.75;;;;;;;;;;5051551;28;20106;-85
2022/07/18 08:36:02;;;;;;;7.55;2.33;;;;;;;;;;5065461;28;20163;-84
2022/07/18 08:41:23;;;;;;;3.83;1.33;;;;;;;;;;5034112;27;1262337;-83
2022/07/18 08:44:09;;;;;;;11.88;2.95;;;;;;;;;;5067102;28;20504;-82
2022/07/18 08:46:54;;;;;;;29.25;9.13;;;;;;;;;;5057662;28;20201;-82
2022/07/18 08:49:39;;;;;;;5.05;2.13;;;;;;;;;;5048600;28;20052;-82
2022/07/18 08:52:24;;;;;;;15.68;5.05;;;;;;;;;;5048098;28;20402;-82
2022/07/18 08:55:09;;;;;;;5.40;1.80;;;;;;;;;;5042540;28;20036;-82
2022/07/18 08:57:54;;;;;;;7.95;1.90;;;;;;;;;;5048573;28;20035;-83
2022/07/18 09:00:39;;;;;;;3.15;1.63;;;;;;;;;;5033452;28;20099;-83
2022/07/18 09:03:24;;;;;;;5.47;1.70;;;;;;;;;;5048891;28;20048;-82
2022/07/18 09:06:13;;;;;;;6.93;1.70;;;;;;;;;;5041181;28;20508;-82
2022/07/18 09:08:59;;;;;;;7.40;1.48;;;;;;;;;;5043261;28;20044;-83
2022/07/18 09:11:50;;;;;;;5.43;1.50;;;;;;;;;;5047408;28;20397;-83
2022/07/18 09:14:36;;;;;;;4.80;1.33;;;;;;;;;;5040953;28;20035;-84
2022/07/18 09:17:25;;;;;;;7.85;1.60;;;;;;;;;;5042879;28;20064;-84
2022/07/18 09:20:16;;;;;;;3.72;1.40;;;;;;;;;;5043814;28;20036;-83
2022/07/18 09:23:12;;;;;;;8.25;1.50;;;;;;;;;;5048072;28;20402;-83
2022/07/18 09:25:57;;;;;;;5.13;1.88;;;;;;;;;;5065638;28;20078;-83
2022/07/18 09:28:46;;;;;;;4.72;1.65;;;;;;;;;;5067974;28;20048;-82
2022/07/18 09:31:31;;;;;;;6.95;1.60;;;;;;;;;;5067527;28;20051;-83
2022/07/18 09:34:32;;;;;;;5.03;1.55;;;;;;;;;;5054447;28;20508;-83
2022/07/18 09:37:17;;;;;;;4.90;1.70;;;;;;;;;;5068281;28;20064;-84
2022/07/18 09:40:14;;;;;;;7.45;2.10;;;;;;;;;;5041355;28;20834;-83
2022/07/18 09:43:04;;;;;;;5.75;2.00;;;;;;;;;;5067501;28;20194;-83
2022/07/18 09:45:53;;;;;;;13.57;3.88;;;;;;;;;;5066441;28;20178;-85
2022/07/18 09:51:18;;;;;;;4.90;1.50;;;;;;;;;;5089339;28;20407;-82
2022/07/18 09:54:03;;;;;;;5.50;1.70;;;;;;;;;;5088110;28;20040;-82
2022/07/18 09:56:47;;;;;;;4.90;1.60;;;;;;;;;;5088075;28;20031;-82
2022/07/18 09:59:32;;;;;;;6.20;1.85;;;;;;;;;;5089312;28;20511;-82
2022/07/18 10:02:17;;;;;;;9.88;1.98;;;;;;;;;;5089418;28;20078;-82
2022/07/18 10:05:02;;;;;;;6.35;1.90;;;;;;;;;;5088772;28;20031;-83
2022/07/18 10:07:46;;;;;;;6.35;1.80;;;;;;;;;;5055780;28;20067;-82
2022/07/18 10:10:32;;;;;;;9.05;2.30;;;;;;;;;;5068992;28;20048;-83
2022/07/18 10:13:17;;;;;;;5.53;1.50;;;;;;;;;;5068250;28;20492;-83
2022/07/18 10:16:02;;;;;;;6.55;1.80;;;;;;;;;;5065187;28;20074;-83
2022/07/18 10:18:47;;;;;;;5.75;2.13;;;;;;;;;;5066828;28;20048;-84
2022/07/18 10:21:32;;;;;;;6.03;2.03;;;;;;;;;;5068724;28;20154;-84
2022/07/18 10:24:18;;;;;;;6.50;2.30;;;;;;;;;;5073823;28;20090;-83
2022/07/18 10:27:16;;;;;;;5.85;2.10;;;;;;;;;;5087480;28;20067;-82
2022/07/18 10:30:14;;;;;;;7.82;1.92;;;;;;;;;;5068408;28;20043;-83
2022/07/18 10:32:59;;;;;;;4.63;2.22;;;;;;;;;;5088493;28;20153;-83
2022/07/18 10:35:59;;;;;;;6.07;2.15;;;;;;;;;;5088552;28;20511;-83
2022/07/18 10:39:03;;;;;;;6.75;2.03;;;;;;;;;;5070753;28;20039;-83
2022/07/18 10:41:48;;;;;;;5.90;1.90;;;;;;;;;;5065168;28;20115;-85
2022/07/18 10:44:39;;;;;;;6.40;2.20;;;;;;;;;;5066865;28;20040;-81
2022/07/18 10:47:28;;;;;;;5.50;2.10;;;;;;;;;;5068541;28;20488;-82
2022/07/18 10:50:13;;;;;;;5.57;2.10;;;;;;;;;;5065072;28;20110;-82
2022/07/18 10:52:58;;;;;;;7.03;2.10;;;;;;;;;;5066199;28;20035;-82
2022/07/18 10:55:47;;;;;;;6.95;2.08;;;;;;;;;;5067357;28;20087;-82
2022/07/18 10:58:40;;;;;;;5.03;2.22;;;;;;;;;;5070253;28;20082;-84
2022/07/18 11:01:25;;;;;;;6.47;1.95;;;;;;;;;;5061079;28;20400;-83
2022/07/18 11:04:22;;;;;;;8.50;2.15;;;;;;;;;;5053878;28;20099;-82
2022/07/18 11:07:08;;;;;;;6.10;2.22;;;;;;;;;;5047468;28;20105;-84
2022/07/18 11:09:53;;;;;;;7.05;2.10;;;;;;;;;;5054266;28;20124;-85
2022/07/18 11:12:37;;;;;;;4.22;2.15;;;;;;;;;;5053564;28;20036;-84
2022/07/18 11:15:22;;;;;;;8.63;2.53;;;;;;;;;;5039478;28;20090;-83
2022/07/18 11:18:06;;;;;;;6.80;2.47;;;;;;;;;;5047275;28;20503;-82
2022/07/18 11:20:51;;;;;;;17.15;3.95;;;;;;;;;;5053520;28;20405;-82
2022/07/18 11:23:42;;;;;;;4.25;2.42;;;;;;;;;;5054301;28;20535;-81
2022/07/18 11:26:27;;;;;;;7.95;2.80;;;;;;;;;;5052371;28;20039;-83
2022/07/18 11:29:14;;;;;;;5.60;3.20;;;;;;;;;;5073598;28;20120;-82
2022/07/18 11:31:59;;;;;;;5.20;2.70;;;;;;;;;;5072778;28;20127;-82
2022/07/18 11:34:50;;;;;;;7.78;2.70;;;;;;;;;;5073246;28;20392;-82
2022/07/18 11:37:36;;;;;;;4.82;2.40;;;31.30;46.30;;;;;;5073966;28;20138;-83
2022/07/18 11:40:21;;;;;;;6.18;2.67;;;;;;;;;;5073738;28;20181;-82
2022/07/18 11:43:05;;;;;;;4.55;2.35;;;;;;;;;;5072317;28;20537;-83
2022/07/18 11:46:10;;;;;;;5.80;3.08;;;;;;;;;;5072766;28;20039;-82
2022/07/18 11:48:59;;;;;;;7.90;2.63;;;;;;;;;;5073773;28;20035;-80
2022/07/18 11:51:45;;;;;;;5.28;2.65;;;;;;;;;;5073751;28;20062;-79
2022/07/18 11:54:30;;;;;;;5.35;2.10;;;;;;;;;;5072679;28;20036;-79
2022/07/18 11:57:26;;;;;;;5.05;2.65;;;;;;;;;;5073370;28;20109;-80
2022/07/18 12:00:14;;;;;;;6.60;3.55;;;;;;;;;;5073250;28;20064;-79
2022/07/18 12:03:10;;;;;;;5.97;2.60;;;31.00;43.30;;;;;;5073191;28;20082;-82
2022/07/18 12:05:55;;;;;;;5.13;2.30;;;;;;;;;;5073710;28;20116;-79
2022/07/18 12:08:44;;;;;;;6.28;3.25;;;;;;;;;;5073581;28;20082;-79
2022/07/18 12:11:34;;;;;;;4.97;2.42;;;;;;;;;;5072211;28;20396;-80
2022/07/18 12:14:18;;;;;;;11.27;2.83;;;;;;;;;;5070992;28;20054;-80
2022/07/18 12:17:03;;;;;;;4.10;2.47;;;;;;;;;;5053816;28;20068;-82
2022/07/18 12:19:48;;;;;;;3.83;2.70;;;;;;;;;;5052071;28;20044;-82
2022/07/18 12:22:32;;;;;;;5.30;3.20;;;;;;;;;;5053174;28;20072;-81
2022/07/18 12:25:17;;;;;;;10.18;3.42;;;;;;;;;;5066092;28;20400;-77
2022/07/18 12:28:18;;;;;;;4.38;2.35;;;;;;;;;;5073155;28;20043;-80
2022/07/18 12:31:03;;;;;;;5.90;2.90;;;;;;;;;;5071728;28;20166;-81
2022/07/18 12:34:07;;;;;;;7.63;3.80;;;;;;;;;;5060115;28;20071;-78
2022/07/18 12:36:59;;;;;;;5.15;2.97;;;;;;;;;;5052782;28;20091;-78
2022/07/18 12:39:44;;;;;;;6.43;3.00;;;;;;;;;;5052684;28;20036;-78
2022/07/18 12:42:30;;;;;;;5.05;2.65;;;;;;;;;;5047169;28;20080;-78
2022/07/18 12:45:15;;;;;;;4.55;2.70;;;;;;;;;;5052347;28;20043;-77
2022/07/18 12:48:00;;;;;;;6.05;3.03;;;;;;;;;;5052701;28;20040;-78
2022/07/18 12:50:45;;;;;;;7.60;2.80;;;;;;;;;;5052795;28;20076;-78
2022/07/18 12:53:31;;;;;;;4.40;2.90;;;;;;;;;;5051900;28;20072;-79
2022/07/18 12:56:16;;;;;;;4.43;2.92;;;;;;;;;;5051309;28;20065;-78
2022/07/18 12:59:01;;;;;;;6.18;3.22;;;;;;;;;;5052666;28;20044;-77
2022/07/18 13:01:45;;;;;;;6.00;3.58;;;;;;;;;;5051414;28;20094;-77
2022/07/18 13:04:30;;;;;;;5.13;3.30;;;;;;;;;;5049868;28;20043;-80
2022/07/18 13:07:15;;;;;;;5.43;3.50;;;;;;;;;;5049481;28;20489;-79
2022/07/18 13:09:59;;;;;;;5.22;3.20;;;;;;;;;;5051203;28;20048;-79
2022/07/18 13:12:44;;;;;;;6.25;3.28;;;;;;;;;;5050745;28;20094;-79
2022/07/18 13:15:28;;;;;;;5.07;3.25;;;;;;;;;;5032824;28;20054;-80
2022/07/18 13:18:13;;;;;;;5.10;3.30;;;;;;;;;;5049888;28;20543;-79
2022/07/18 13:20:57;;;;;;;6.80;2.92;;;;;;;;;;5051786;28;20050;-79
2022/07/18 13:23:42;;;;;;;4.57;2.70;;;;;;;;;;5051486;28;20106;-80
2022/07/18 13:26:26;;;;;;;8.00;3.10;;;;;;;;;;5049259;28;20492;-78
2022/07/18 13:29:11;;;;;;;4.90;2.67;;;;;;;;;;5053887;28;20032;-81
2022/07/18 13:31:56;;;;;;;7.07;3.30;;;;;;;;;;5048179;28;20060;-78
2022/07/18 13:34:41;;;;;;;6.40;2.97;;;;;;;;;;5051340;28;20031;-78
2022/07/18 13:37:25;;;;;;;5.78;2.50;;;;;;;;;;5049011;28;20063;-79
2022/07/18 13:40:10;;;;;;;4.57;2.50;;;;;;;;;;5050967;28;20507;-80
2022/07/18 13:42:55;;;;;;;5.65;2.80;;;;;;;;;;5052035;28;20393;-80
2022/07/18 13:45:40;;;;;;;7.75;2.85;;;;;;;;;;5050647;28;20036;-80
2022/07/18 13:48:25;;;;;;;5.00;2.90;;;;;;;;;;5050303;28;20117;-80
2022/07/18 13:51:10;;;;;;;6.30;2.95;;;;;;;;;;5042487;28;20115;-81
2022/07/18 13:53:54;;;;;;;6.93;3.10;;;;;;;;;;5050696;28;20036;-79
2022/07/18 13:56:39;;;;;;;7.05;2.42;;;;;;;;;;5050420;28;20032;-80
2022/07/18 13:59:23;;;;;;;5.95;2.25;;;;;;;;;;5035099;28;20102;-80
2022/07/18 14:02:08;;;;;;;7.28;2.25;;;;;;;;;;5050591;28;20040;-80
2022/07/18 14:04:53;;;;;;;5.35;2.90;;;;;;;;;;5044190;28;20079;-81
2022/07/18 14:07:37;;;;;;;5.63;2.78;;;;;;;;;;5051139;28;20063;-83
2022/07/18 14:10:22;;;;;;;5.20;2.85;;;;;;;;;;5049880;28;20151;-82
2022/07/18 14:13:06;;;;;;;4.25;2.60;;;;;;;;;;5051613;28;20040;-84
2022/07/18 14:15:51;;;;;;;3.85;2.72;;;;;;;;;;5036525;28;20043;-81
2022/07/18 14:18:36;;;;;;;7.65;2.63;;;;;;;;;;5051120;28;20039;-82
2022/07/18 14:21:20;;;;;;;18.02;3.47;;;;;;;;;;5049698;28;20095;-82
2022/07/18 14:24:05;;;;;;;5.97;2.70;;;;;;;;;;5054918;28;20039;-81
2022/07/18 14:26:50;;;;;;;5.30;2.60;;;;;;;;;;5071568;28;20035;-81
2022/07/18 14:29:36;;;;;;;4.20;2.63;;;;;;;;;;5070071;28;20098;-81
2022/07/18 14:32:21;;;;;;;5.57;2.95;;;;;;;;;;5070974;28;20094;-83
2022/07/18 14:35:06;;;;;;;4.63;2.70;;;;;;;;;;5071569;28;20059;-83
2022/07/18 14:37:51;;;;;;;6.50;2.58;;;;;;;;;;5074687;28;20051;-81
2022/07/18 14:40:35;;;;;;;7.10;3.33;;;;;;;;;;5074815;28;20147;-82
2022/07/18 14:43:20;;;;;;;4.38;2.45;;;;;;;;;;5073932;28;20047;-82
2022/07/18 14:46:05;;;;;;;8.82;3.53;;;;;;;;;;5075075;28;20381;-81
2022/07/18 14:48:51;;;;;;;4.00;2.38;;;;;;;;;;5075112;28;20055;-80
2022/07/18 14:51:36;;;;;;;6.35;2.42;;;;;;;;;;5073368;28;20071;-81
2022/07/18 14:54:21;;;;;;;6.35;2.38;;;;;;;;;;5064500;28;20598;-81
2022/07/18 14:57:05;;;;;;;8.93;2.50;;;;;;;;;;5053637;28;20040;-78
2022/07/18 14:59:50;;;;;;;5.82;2.00;;;;;;;;;;5054640;28;20122;-78
2022/07/18 15:02:35;;;;;;;3.95;2.03;;;;;;;;;;5054133;28;20044;-80
2022/07/18 15:05:19;;;;;;;3.83;1.88;;;;;;;;;;5054797;28;20035;-79
2022/07/18 15:08:04;;;;;;;3.03;1.95;;;;;;;;;;5054401;28;20043;-80
2022/07/18 15:10:49;;;;;;;6.32;2.40;;;;;;;;;;5054196;28;20043;-78
2022/07/18 15:13:33;;;;;;;6.65;2.40;;;;;;;;;;5052684;28;20067;-79
2022/07/18 15:16:18;;;;;;;6.75;2.58;;;;;;;;;;5054667;28;20035;-80
2022/07/18 15:19:02;;;;;;;2.92;1.83;;;;;;;;;;5054383;28;20039;-79
2022/07/18 15:21:47;;;;;;;5.60;2.15;;;;;;;;;;5053666;28;20087;-79
2022/07/18 15:24:33;;;;;;;3.88;2.10;;;;;;;;;;5059912;28;20145;-79
2022/07/18 15:27:17;;;;;;;4.82;2.15;;;;;;;;;;5074220;28;20115;-78
2022/07/18 15:30:02;;;;;;;6.05;2.30;;;;;;;;;;5073481;28;20071;-78
2022/07/18 15:32:47;;;;;;;5.85;2.40;;;;;;;;;;5072673;28;20039;-77
2022/07/18 15:35:31;;;;;;;4.18;2.08;;;;;;;;;;5073781;28;20040;-80
2022/07/18 15:38:16;;;;;;;4.85;2.47;;;;;;;;;;5073413;28;20400;-79
2022/07/18 15:41:00;;;;;;;5.47;2.55;;;;;;;;;;5074004;28;20089;-79
2022/07/18 15:43:52;;;;;;;4.90;2.05;;;;;;;;;;5073558;28;20040;-79
2022/07/18 15:46:37;;;;;;;5.28;2.10;;;;;;;;;;5073594;28;20027;-79
2022/07/18 15:49:22;;;;;;;8.45;2.30;;;;;;;;;;5073255;28;20111;-78
2022/07/18 15:52:08;;;;;;;3.97;1.92;;;;;;;;;;5073935;28;20039;-78
2022/07/18 15:54:53;;;;;;;4.28;2.05;;;;;;;;;;5063122;28;20075;-78
2022/07/18 15:57:37;;;;;;;4.20;1.98;;;;;;;;;;5052232;28;20039;-78
2022/07/18 16:00:22;;;;;;;4.57;1.80;;;;;;;;;;5053587;28;20043;-79
2022/07/18 16:03:07;;;;;;;4.63;2.20;;;;;;;;;;5052497;28;20075;-79
2022/07/18 16:05:51;;;;;;;5.00;1.90;;;;;;;;;;5053176;28;20321;-79
2022/07/18 16:11:15;;;;;;;5.13;2.33;;;;;;;;;;5089584;28;20745;-79
2022/07/18 16:14:01;;;;;;;6.28;2.40;;;;;;;;;;5073985;28;20035;-80
2022/07/18 16:16:45;;;;;;;3.60;2.00;;;;;;;;;;5073828;28;20491;-80
2022/07/18 16:19:30;;;;;;;4.68;1.90;;;;;;;;;;5074158;28;20051;-79
2022/07/18 16:24:52;;;;;;;6.82;2.17;;;;;;;;;;5140474;27;1273266;-79
2022/07/18 16:27:36;;;;;;;5.38;3.17;;;;;;;;;;5155382;27;20029;-80
2022/07/18 16:30:27;;;;;;;4.38;2.22;;;;;;;;;;5158498;27;20042;-79
